< < Back
Terminal Aerodrome Forecast


Current Version              Previous Versions:   1  2  3  4  5  6  7  8  9  

Terminal Aerodrome Forecast

051
FTUS42 KCHS 191700
TAFSAV
TAF
KSAV 191720Z 1918/2018 VRB03KT P6SM SKC
     FM201400 28006KT P6SM FEW250=

Latest METAR

165
SAUS80 KWBC 202100
MTRSAV
METAR KSAV 202053Z 25010KT 10SM BKN250 18/M02 A3018 RMK AO2 SLP220
T01781017 56017


USA.gov is the U.S. government's official web portal to all federal, state and local government web resources and services.